EW7966 Weather Reports


Display with metric or nautical units.
time (UTC)temp
F
wind
direction
speed
MPH
gust
MPH
rain 1hr
in
rain 24hr
in
rain mn
in
humidity
%
barometer
mb
20220808063006 60 202 3.0 6.0 0.00 0.01 0.00 82 1044.8
20220808063004 60 202 2.0 6.0 0.00 0.01 0.00 82 1030.9
20220808062506 60 203 2.0 7.0 0.00 0.01 0.00 84 1044.8
20220808062007 60 200 5.0 11.0 0.00 0.01 0.00 84 1044.8
20220808061511 60 209 6.0 11.0 0.00 0.01 0.00 84 1044.7
20220808061506 60 209 6.0 11.0 0.00 0.01 0.00 84 1030.7
20220808061007 60 215 7.0 11.0 0.00 0.01 0.00 84 1044.6
20220808060505 60 205 8.0 11.0 0.00 0.01 0.00 84 1044.6
20220808060016 60 221 8.0 12.0 0.00 0.01 0.00 84 1044.5
20220808055505 60 207 8.0 12.0 0.00 0.01 0.01 84 1044.5
20220808055009 60 201 7.0 10.0 0.00 0.01 0.01 86 1044.7
20220808054512 60 211 6.0 11.0 0.00 0.01 0.01 86 1030.6
20220808054508 60 211 6.0 11.0 0.00 0.01 0.01 86 1044.7
20220808054007 60 217 8.0 13.0 0.00 0.01 0.01 86 1044.7
20220808053507 60 213 9.0 15.0 0.00 0.01 0.01 86 1044.5
20220808053008 60 219 8.0 15.0 0.00 0.01 0.01 87 1030.3
20220808053006 60 219 9.0 15.0 0.00 0.01 0.01 87 1044.5
20220808052509 60 213 9.0 16.0 0.00 0.01 0.01 86 1044.5
20220808052008 60 240 9.0 16.0 0.00 0.01 0.01 87 1044.5
20220808051511 60 221 9.0 14.0 0.00 0.01 0.01 87 1044.6
20220808051508 60 221 8.0 14.0 0.00 0.01 0.01 87 1030.4
20220808051010 60 221 8.0 14.0 0.00 0.01 0.01 87 1044.7
20220808050508 60 241 7.0 15.0 0.00 0.01 0.01 87 1045.0
20220808050011 60 234 10.0 16.0 0.00 0.01 0.01 86 1045.0
20220808050009 60 234 10.0 16.0 0.00 0.01 0.01 86 1030.6
20220808045507 60 225 10.0 15.0 0.00 0.01 0.01 86 1045.1
20220808045009 60 240 10.0 15.0 0.00 0.01 0.01 86 1045.1
20220808044506 60 231 10.0 15.0 0.00 0.01 0.01 86 1045.3
20220808044006 60 221 9.0 14.0 0.00 0.01 0.01 85 1045.5
20220808043509 60 219 8.0 13.0 0.00 0.01 0.01 85 1045.7
20220808043057 60 246 9.0 16.0 0.00 0.01 0.01 85 1045.7
20220808042506 61 257 11.0 16.0 0.00 0.01 0.01 83 1045.7
20220808042010 62 279 11.0 16.0 0.00 0.01 0.01 83 1045.8
20220808041509 63 270 9.0 13.0 0.01 0.01 0.01 83 1045.7
20220808041007 63 253 6.0 13.0 0.01 0.01 0.01 84 1045.7
20220808040506 63 248 9.0 13.0 0.01 0.01 0.01 83 1045.8
20220808040012 63 257 6.0 13.0 0.01 0.01 0.01 87 1031.3
20220808035506 63 219 2.0 5.0 0.01 0.01 0.01 86 1045.6
20220808035013 63 230 3.0 5.0 0.01 0.01 0.01 85 1045.4
20220808034512 63 171 3.0 6.0 0.01 0.01 0.01 84 1045.3
20220808034509 63 171 3.0 6.0 0.01 0.01 0.01 84 1030.9
20220808034007 63 172 4.0 9.0 0.01 0.01 0.01 85 1045.3
20220808033508 63 190 5.0 9.0 0.01 0.01 0.01 86 1045.1
20220808033007 63 190 3.0 6.0 0.01 0.01 0.01 86 1045.0
20220808032507 63 148 3.0 6.0 0.01 0.01 0.01 86 1044.9
20220808032007 63 160 2.0 4.0 0.01 0.01 0.01 85 1044.7
20220808031510 63 163 2.0 5.0 0.00 0.00 0.00 85 1044.6
20220808031508 63 163 1.0 5.0 0.00 0.00 0.00 85 1030.1
20220808031011 63 206 4.0 5.0 0.00 0.00 0.00 87 1044.6
20220808030513 63 198 3.0 5.0 0.00 0.00 0.00 86 1044.7
20220808030019 63 205 2.0 3.0 0.00 0.00 0.00 87 1044.5
20220808030006 63 205 1.0 3.0 0.00 0.00 0.00 87 1030.0
20220808025510 63 143 3.0 6.0 0.00 0.00 0.00 85 1044.5
20220808025006 63 115 3.0 6.0 0.00 0.00 0.00 84 1044.5
20220808024513 63 94 3.0 6.0 0.00 0.00 0.00 85 1044.4
20220808024508 63 94 3.0 6.0 0.00 0.00 0.00 85 1029.8
20220808024010 63 52 4.0 6.0 0.00 0.00 0.00 85 1044.2
20220808023506 63 60 4.0 6.0 0.00 0.00 0.00 85 1044.1
20220808023011 64 80 4.0 6.0 0.00 0.00 0.00 84 1044.2
20220808022515 64 84 4.0 5.0 0.00 0.00 0.00 85 1044.3
20220808022010 64 82 4.0 8.0 0.00 0.00 0.00 85 1044.4
20220808021510 64 78 5.0 11.0 0.00 0.00 0.00 85 1044.5
20220808021508 64 78 4.0 11.0 0.00 0.00 0.00 85 1029.9
20220808021006 64 69 7.0 12.0 0.00 0.00 0.00 84 1044.6
20220808020507 65 49 9.0 12.0 0.00 0.00 0.00 83 1044.7
20220808020026 65 64 7.0 12.0 0.00 0.00 0.00 81 1029.9
20220808020012 65 64 8.0 12.0 0.00 0.00 0.00 81 1044.5
20220808015521 65 68 8.0 12.0 0.00 0.00 0.00 82 1044.3
20220808015006 65 72 7.0 13.0 0.00 0.00 0.00 80 1044.2
20220808014509 66 79 10.0 13.0 0.00 0.00 0.00 79 1044.2
20220808014007 66 66 9.0 13.0 0.00 0.00 0.00 81 1044.1
20220808013506 66 77 9.0 13.0 0.00 0.00 0.00 81 1044.0
20220808013014 66 71 10.0 14.0 0.00 0.00 0.00 80 1043.7
20220808013007 66 72 9.0 14.0 0.00 0.00 0.00 80 1029.0
20220808012507 67 76 10.0 14.0 0.00 0.00 0.00 79 1043.4
20220808012006 67 69 10.0 14.0 0.00 0.00 0.00 78 1043.1
20220808011511 67 61 9.0 14.0 0.00 0.00 0.00 76 1042.9
20220808011509 67 61 8.0 14.0 0.00 0.00 0.00 76 1028.2
20220808011006 68 66 9.0 15.0 0.00 0.00 0.00 75 1042.6
20220808010506 68 32 11.0 15.0 0.00 0.00 0.00 75 1042.5
20220808010013 69 65 11.0 15.0 0.00 0.00 0.00 74 1027.9
20220808010008 69 65 11.0 15.0 0.00 0.00 0.00 74 1042.6
20220808005507 69 60 11.0 14.0 0.00 0.00 0.00 74 1042.6
20220808005006 69 55 10.0 14.0 0.00 0.00 0.00 73 1042.6
20220808004507 69 52 10.0 14.0 0.00 0.00 0.00 74 1042.7
20220808004006 69 69 11.0 15.0 0.00 0.00 0.00 73 1042.6
20220808003507 70 65 10.0 15.0 0.00 0.00 0.00 73 1042.5
20220808003006 71 84 9.0 16.0 0.00 0.00 0.00 69 1042.4
20220808003004 71 84 9.0 16.0 0.00 0.00 0.00 69 1027.7
20220808002507 71 72 11.0 16.0 0.00 0.00 0.00 68 1042.4
20220808002006 72 65 10.0 13.0 0.00 0.00 0.00 66 1042.3
20220808001508 72 71 8.0 12.0 0.00 0.00 0.00 68 1027.7
20220808001010 72 49 8.0 13.0 0.00 0.00 0.00 65 1042.2
20220808000509 72 65 8.0 13.0 0.00 0.00 0.00 64 1042.1
20220808000006 72 40 7.0 12.0 0.00 0.00 0.00 66 1041.9
20220807235506 72 5 8.0 12.0 0.00 0.00 0.00 67 1041.6
20220807235006 72 35 10.0 12.0 0.00 0.00 0.00 67 1041.4
20220807234510 72 32 7.0 12.0 0.00 0.00 0.00 67 1041.3
20220807234507 72 32 7.0 12.0 0.00 0.00 0.00 67 1026.7
20220807234003 72 52 8.0 13.0 0.00 0.00 0.00 67 1041.3
20220807233506 72 19 8.0 13.0 0.00 0.00 0.00 66 1041.3
20220807233006 72 51 7.0 12.0 0.00 0.00 0.00 63 1041.4
20220807233004 72 51 7.0 12.0 0.00 0.00 0.00 63 1026.9
20220807232506 72 355 8.0 12.0 0.00 0.00 0.00 64 1041.1
20220807232010 71 34 7.0 11.0 0.00 0.00 0.00 69 1041.1
20220807231507 70 40 9.0 11.0 0.00 0.00 0.00 67 1041.1
20220807231505 70 38 8.0 11.0 0.00 0.00 0.00 67 1026.7
20220807231012 70 30 7.0 12.0 0.00 0.00 0.00 69 1041.3
20220807230510 70 53 9.0 12.0 0.00 0.00 0.00 67 1041.6
20220807230010 70 42 8.0 11.0 0.00 0.00 0.00 68 1041.9
20220807230007 70 42 7.0 11.0 0.00 0.00 0.00 68 1027.5
20220807225509 71 37 7.0 13.0 0.00 0.17 0.00 66 1042.1
20220807225010 71 28 9.0 14.0 0.00 0.17 0.00 65 1042.2
20220807224507 71 53 9.0 14.0 0.00 0.17 0.00 65 1042.3
20220807224504 71 53 8.0 14.0 0.00 0.17 0.00 65 1028.0
20220807224007 70 30 9.0 12.0 0.00 0.17 0.00 64 1042.4
20220807223514 70 42 8.0 16.0 0.00 0.17 0.00 65 1042.4
20220807223012 71 51 9.0 16.0 0.00 0.17 0.00 69 1042.3
20220807223008 71 51 9.0 16.0 0.00 0.17 0.00 69 1028.0
20220807222507 70 62 9.0 16.0 0.00 0.17 0.00 67 1042.4
20220807222008 70 49 10.0 16.0 0.00 0.17 0.00 68 1042.3
20220807221509 70 44 10.0 15.0 0.00 0.17 0.00 68 1042.2
20220807221506 70 44 10.0 15.0 0.00 0.17 0.00 68 1028.0
20220807221011 70 46 10.0 14.0 0.00 0.17 0.00 67 1042.2
20220807220508 70 34 8.0 16.0 0.00 0.17 0.00 67 1042.2
20220807220012 70 40 11.0 16.0 0.00 0.17 0.00 69 1041.9
20220807220010 70 44 10.0 16.0 0.00 0.17 0.00 69 1027.7
20220807215510 70 64 10.0 14.0 0.00 0.18 0.00 70 1041.8
20220807215006 70 35 10.0 13.0 0.00 0.18 0.00 72 1041.9
20220807214507 69 56 10.0 14.0 0.00 0.18 0.00 71 1041.9
20220807214505 69 56 9.0 14.0 0.00 0.18 0.00 71 1027.7
20220807214011 68 40 9.0 14.0 0.00 0.18 0.00 74 1041.9
20220807213507 68 49 9.0 15.0 0.00 0.18 0.00 72 1041.9
20220807213011 68 42 11.0 15.0 0.00 0.18 0.00 72 1042.0
20220807213006 68 34 11.0 15.0 0.00 0.18 0.00 72 1027.7
20220807212506 69 43 10.0 15.0 0.00 0.18 0.00 70 1042.1
20220807212007 69 53 10.0 14.0 0.00 0.18 0.00 70 1042.2
20220807211508 69 65 10.0 14.0 0.00 0.18 0.00 70 1042.2
20220807211009 68 49 10.0 14.0 0.00 0.18 0.00 71 1042.4
20220807210510 68 62 8.0 15.0 0.00 0.18 0.00 71 1042.4
20220807210011 68 59 11.0 15.0 0.00 0.18 0.00 72 1042.3
20220807210008 68 59 10.0 15.0 0.00 0.18 0.00 72 1028.0
20220807205513 68 58 11.0 15.0 0.00 0.42 0.00 72 1042.2
20220807205006 68 57 9.0 14.0 0.00 0.42 0.00 72 1042.2
20220807204514 68 71 11.0 14.0 0.00 0.42 0.00 70 1042.1
20220807204507 68 61 10.0 14.0 0.00 0.42 0.00 70 1027.7
20220807204014 68 44 8.0 12.0 0.00 0.42 0.00 72 1042.0
20220807203513 69 50 8.0 12.0 0.00 0.42 0.00 73 1042.2
20220807203014 69 72 7.0 12.0 0.00 0.42 0.00 75 1042.1
20220807203006 69 73 7.0 12.0 0.00 0.42 0.00 75 1027.6
20220807202507 68 50 8.0 12.0 0.00 0.42 0.00 74 1042.2
20220807202011 69 36 9.0 13.0 0.00 0.42 0.00 72 1042.2
20220807201515 69 56 9.0 14.0 0.00 0.42 0.00 73 1042.2
20220807201506 69 67 8.0 14.0 0.00 0.42 0.00 73 1027.6
20220807201007 69 49 9.0 14.0 0.00 0.42 0.00 72 1042.3
20220807200506 69 49 10.0 13.0 0.00 0.42 0.00 72 1042.4
20220807200009 69 82 8.0 12.0 0.00 0.42 0.00 71 1027.7
20220807195509 69 71 8.0 12.0 0.00 0.42 0.00 71 1042.6
20220807195006 69 69 9.0 12.0 0.00 0.42 0.00 70 1042.6
20220807194509 69 58 9.0 14.0 0.00 0.42 0.00 70 1042.7
20220807194507 69 58 8.0 14.0 0.00 0.42 0.00 70 1027.9
20220807194006 69 77 8.0 14.0 0.00 0.42 0.00 70 1042.9
20220807193506 69 66 8.0 13.0 0.00 0.42 0.00 71 1042.9
20220807193010 69 34 7.0 12.0 0.00 0.42 0.00 72 1043.0
20220807193008 69 34 7.0 12.0 0.00 0.42 0.00 72 1028.1
20220807192506 69 48 6.0 11.0 0.00 0.42 0.00 70 1043.0
20220807192010 69 355 8.0 14.0 0.00 0.42 0.00 72 1043.0
20220807191516 69 47 8.0 14.0 0.00 0.42 0.00 71 1028.2
20220807191507 69 47 9.0 14.0 0.00 0.42 0.00 71 1043.0
20220807191006 69 37 10.0 14.0 0.00 0.42 0.00 70 1043.0
20220807190507 69 62 10.0 13.0 0.00 0.42 0.00 71 1042.9
20220807190008 69 71 9.0 14.0 0.00 0.42 0.00 70 1042.9
20220807190006 69 71 9.0 14.0 0.00 0.42 0.00 70 1028.0
20220807185507 69 55 9.0 14.0 0.00 0.42 0.00 71 1042.9
20220807185006 69 37 7.0 14.0 0.00 0.42 0.00 70 1042.9
20220807184512 69 51 9.0 13.0 0.00 0.42 0.00 70 1027.9
20220807184506 69 51 9.0 13.0 0.00 0.42 0.00 70 1042.9
20220807184006 69 65 8.0 15.0 0.00 0.42 0.00 70 1042.8
20220807183508 69 18 12.0 16.0 0.00 0.42 0.00 70 1042.7
20220807183007 69 42 11.0 16.0 0.00 0.42 0.00 71 1027.7
20220807182506 69 46 11.0 16.0 0.00 0.42 0.00 71 1042.6
20220807182008 68 29 8.0 12.0 0.00 0.42 0.00 72 1042.6
20220807181511 68 22 8.0 12.0 0.00 0.42 0.00 72 1027.7
20220807181506 68 22 9.0 12.0 0.00 0.42 0.00 72 1042.6
20220807181006 68 355 9.0 13.0 0.00 0.42 0.00 70 1042.7
20220807180506 68 11 7.0 13.0 0.00 0.42 0.00 70 1042.8
20220807180008 68 344 7.0 13.0 0.00 0.42 0.00 71 1042.7
20220807180006 68 344 7.0 13.0 0.00 0.42 0.00 71 1027.8
20220807175509 68 360 8.0 13.0 0.00 0.42 0.00 71 1042.6
20220807175007 68 360 9.0 13.0 0.00 0.42 0.00 70 1042.6
20220807174506 68 345 8.0 15.0 0.00 0.42 0.00 71 1042.6
20220807174006 68 346 9.0 15.0 0.00 0.42 0.00 72 1042.5
20220807173508 68 346 9.0 13.0 0.00 0.42 0.00 71 1042.5
20220807173006 68 355 8.0 13.0 0.00 0.42 0.00 72 1042.4
20220807172509 68 360 9.0 13.0 0.00 0.42 0.00 72 1042.3
20220807172006 68 355 9.0 13.0 0.00 0.42 0.00 73 1042.3
20220807171509 68 350 9.0 13.0 0.00 0.42 0.00 72 1027.3
20220807171506 68 350 9.0 13.0 0.00 0.42 0.00 72 1042.3
20220807171006 68 328 8.0 13.0 0.00 0.42 0.00 73 1042.2
20220807170507 68 24 10.0 13.0 0.00 0.42 0.00 72 1042.4
20220807170012 68 340 8.0 15.0 0.00 0.42 0.00 70 1027.3
20220807165506 68 355 8.0 15.0 0.00 0.42 0.00 72 1042.4
20220807165007 68 355 8.0 13.0 0.00 0.42 0.00 71 1042.4
20220807164506 68 337 6.0 13.0 0.00 0.42 0.00 73 1027.3
20220807164006 67 342 8.0 13.0 0.00 0.42 0.00 72 1042.4
20220807163506 67 340 8.0 12.0 0.00 0.42 0.00 71 1042.3
20220807163010 67 324 6.0 12.0 0.00 0.42 0.00 74 1027.1
20220807163006 67 324 7.0 12.0 0.00 0.42 0.00 74 1042.3
20220807162506 66 339 7.0 10.0 0.00 0.42 0.00 73 1042.2
20220807162006 66 347 6.0 10.0 0.00 0.42 0.00 74 1042.1
20220807161506 66 336 6.0 9.0 0.00 0.42 0.00 74 1042.1
20220807161504 66 336 6.0 9.0 0.00 0.42 0.00 74 1026.8
20220807161006 66 328 6.0 9.0 0.00 0.42 0.00 75 1042.2
20220807160508 66 302 5.0 8.0 0.00 0.42 0.00 76 1042.1
20220807160008 66 313 4.0 10.0 0.00 0.42 0.00 76 1042.1
20220807155507 65 331 6.0 10.0 0.00 0.42 0.00 75 1042.0
20220807155005 65 296 6.0 11.0 0.00 0.42 0.00 75 1042.0
20220807154511 65 290 6.0 12.0 0.00 0.42 0.00 76 1026.5
20220807154506 65 290 7.0 12.0 0.00 0.42 0.00 76 1041.9
20220807154006 65 317 9.0 14.0 0.00 0.42 0.00 75 1041.8
20220807153508 65 317 9.0 14.0 0.00 0.42 0.00 76 1041.8
20220807153007 65 304 9.0 13.0 0.00 0.42 0.00 76 1041.7
20220807152506 65 299 9.0 12.0 0.00 0.42 0.00 76 1041.8
20220807152007 65 273 9.0 14.0 0.00 0.42 0.00 75 1041.7
20220807151506 65 304 10.0 14.0 0.00 0.42 0.00 76 1041.6
20220807151504 65 304 10.0 14.0 0.00 0.42 0.00 76 1026.3
20220807151009 65 308 9.0 12.0 0.00 0.42 0.00 78 1041.6
20220807150507 65 283 9.0 12.0 0.00 0.42 0.00 76 1041.5
20220807150008 65 279 8.0 11.0 0.00 0.42 0.00 77 1041.4
20220807150006 65 279 8.0 11.0 0.00 0.42 0.00 77 1026.1
20220807145506 65 294 8.0 11.0 0.00 0.42 0.00 77 1041.3
20220807145005 65 290 8.0 12.0 0.00 0.42 0.00 77 1041.2
20220807144506 65 292 10.0 13.0 0.00 0.42 0.00 77 1041.2
20220807144504 65 292 9.0 13.0 0.00 0.42 0.00 77 1025.8
20220807144007 65 291 9.0 12.0 0.00 0.42 0.00 77 1041.2
20220807143505 65 289 8.0 12.0 0.00 0.42 0.00 78 1041.1
20220807143011 64 283 8.0 13.0 0.00 0.42 0.00 77 1025.8
20220807143007 64 283 9.0 13.0 0.00 0.42 0.00 77 1041.1
20220807142507 64 295 9.0 13.0 0.00 0.42 0.00 76 1041.0
20220807142006 64 295 8.0 11.0 0.00 0.42 0.00 76 1040.9
20220807141507 64 291 8.0 11.0 0.00 0.42 0.00 77 1040.9
20220807141504 64 285 7.0 11.0 0.00 0.42 0.00 77 1025.6
20220807141006 64 286 7.0 11.0 0.00 0.42 0.00 74 1040.9
20220807140506 65 276 6.0 9.0 0.00 0.42 0.00 74 1040.8
20220807140009 65 277 4.0 8.0 0.00 0.42 0.00 73 1025.5
20220807140007 65 277 4.0 8.0 0.00 0.42 0.00 73 1040.8
20220807135506 65 281 2.0 5.0 0.00 0.42 0.00 73 1040.9
20220807135012 65 302 2.0 5.0 0.00 0.42 0.00 72 1040.8
20220807134509 65 294 1.0 4.0 0.00 0.42 0.00 72 1040.7
20220807134507 65 294 1.0 4.0 0.00 0.42 0.00 72 1025.5
20220807134006 65 285 3.0 10.0 0.00 0.42 0.00 72 1040.6
20220807133506 65 265 7.0 11.0 0.00 0.42 0.00 71 1040.5
20220807133006 65 263 7.0 11.0 0.00 0.42 0.00 71 1040.3
20220807133004 65 263 6.0 11.0 0.00 0.42 0.00 71 1025.1
20220807132507 65 279 8.0 15.0 0.00 0.42 0.00 70 1040.3
20220807132006 65 284 9.0 16.0 0.00 0.42 0.00 69 1040.1
20220807131509 65 262 10.0 17.0 0.00 0.42 0.00 68 1040.0
20220807131507 65 262 10.0 17.0 0.00 0.42 0.00 68 1024.8
20220807131006 66 257 10.0 17.0 0.00 0.42 0.00 68 1039.9
20220807130505 65 242 8.0 12.0 0.00 0.42 0.00 68 1039.9
20220807130009 65 260 8.0 11.0 0.00 0.42 0.00 69 1039.7
20220807130007 65 260 7.0 11.0 0.00 0.42 0.00 69 1024.4
20220807125506 65 269 7.0 9.0 0.00 0.42 0.00 70 1039.6
20220807125005 65 235 8.0 13.0 0.00 0.42 0.00 70 1039.5
20220807124508 64 254 6.0 11.0 0.00 0.42 0.00 72 1039.5
20220807124009 64 237 7.0 11.0 0.00 0.42 0.00 73 1039.4
20220807123506 64 233 7.0 13.0 0.00 0.42 0.00 72 1039.2
20220807123014 64 244 7.0 13.0 0.00 0.42 0.00 73 1023.7
20220807123007 64 244 7.0 13.0 0.00 0.42 0.00 73 1039.1
20220807122506 64 252 8.0 12.0 0.00 0.42 0.00 74 1039.0
20220807122005 64 244 10.0 12.0 0.00 0.42 0.00 74 1038.8
20220807121509 64 246 8.0 12.0 0.00 0.42 0.00 75 1023.2
20220807121506 64 246 9.0 12.0 0.00 0.42 0.00 75 1038.7
20220807121009 64 240 8.0 12.0 0.00 0.42 0.00 75 1038.6
20220807120505 64 235 9.0 12.0 0.00 0.42 0.00 74 1038.6
20220807120014 64 233 9.0 14.0 0.00 0.42 0.00 74 1023.0
20220807120007 64 233 9.0 14.0 0.00 0.42 0.00 74 1038.6
20220807115505 65 229 9.0 13.0 0.00 0.42 0.00 74 1038.4
20220807115006 65 238 9.0 12.0 0.00 0.42 0.00 74 1038.4
20220807114506 65 250 8.0 12.0 0.00 0.42 0.00 74 1038.3
20220807114504 65 250 8.0 12.0 0.00 0.42 0.00 74 1022.8
20220807114006 65 230 8.0 12.0 0.00 0.42 0.00 75 1038.3
20220807113506 64 209 6.0 12.0 0.00 0.42 0.00 77 1038.2
20220807113005 64 218 5.0 8.0 0.00 0.42 0.00 78 1038.3
20220807112506 64 198 5.0 7.0 0.00 0.42 0.00 77 1038.3
20220807112007 64 217 3.0 6.0 0.00 0.42 0.00 76 1038.3
20220807111509 64 192 3.0 6.0 0.00 0.42 0.00 76 1038.4
20220807111507 64 192 3.0 6.0 0.00 0.42 0.00 76 1022.9
20220807111005 64 182 3.0 6.0 0.00 0.42 0.00 75 1038.4
20220807110507 65 204 2.0 6.0 0.00 0.42 0.00 74 1038.3
20220807110012 65 198 3.0 7.0 0.00 0.42 0.00 74 1022.8
20220807110008 65 198 3.0 7.0 0.00 0.42 0.00 74 1038.2
20220807105506 65 210 4.0 7.0 0.00 0.42 0.00 73 1038.2
20220807105006 65 201 3.0 9.0 0.00 0.42 0.00 73 1038.1
20220807104506 65 213 4.0 9.0 0.00 0.42 0.00 73 1038.2
20220807104504 65 213 4.0 9.0 0.00 0.42 0.00 73 1022.8
20220807104005 65 173 4.0 8.0 0.00 0.42 0.00 73 1038.1
20220807103505 65 188 5.0 9.0 0.00 0.42 0.00 73 1038.1
20220807103006 65 211 5.0 12.0 0.00 0.42 0.00 74 1038.2
20220807103004 65 211 5.0 12.0 0.00 0.42 0.00 74 1022.9
20220807102506 65 191 5.0 12.0 0.00 0.42 0.00 74 1038.1
20220807102005 65 215 6.0 10.0 0.00 0.42 0.00 74 1038.2
20220807101506 65 199 5.0 9.0 0.00 0.42 0.00 74 1038.2
20220807101006 65 182 4.0 11.0 0.00 0.42 0.00 74 1038.1
20220807100506 65 186 5.0 11.0 0.00 0.42 0.00 74 1038.2
20220807100012 65 221 6.0 11.0 0.00 0.42 0.00 74 1022.9
20220807100008 65 221 6.0 11.0 0.00 0.42 0.00 74 1038.2
20220807095509 65 171 4.0 9.0 0.00 0.42 0.00 74 1038.2
20220807095006 65 196 5.0 9.0 0.00 0.42 0.00 74 1038.3
20220807094506 65 198 4.0 8.0 0.00 0.42 0.00 74 1038.3
20220807094504 65 198 3.0 8.0 0.00 0.42 0.00 74 1023.1
20220807094005 64 201 5.0 9.0 0.00 0.42 0.00 75 1038.4
20220807093507 64 200 4.0 8.0 0.00 0.42 0.00 76 1038.5
20220807093008 64 203 4.0 7.0 0.00 0.42 0.00 77 1038.5
20220807092505 64 219 3.0 6.0 0.00 0.42 0.00 78 1038.6
20220807092006 64 209 3.0 6.0 0.00 0.42 0.00 77 1038.7
20220807091505 64 230 3.0 8.0 0.00 0.42 0.00 77 1038.7
20220807091008 64 227 4.0 8.0 0.00 0.42 0.00 76 1038.6
20220807090506 64 202 5.0 10.0 0.00 0.42 0.00 76 1038.5
20220807090011 64 214 5.0 10.0 0.00 0.42 0.00 75 1023.2
20220807090008 64 214 6.0 10.0 0.00 0.42 0.00 75 1038.5
20220807085505 64 193 5.0 9.0 0.00 0.42 0.00 74 1038.5
20220807085006 64 186 5.0 11.0 0.00 0.42 0.00 73 1038.6
20220807084505 64 201 6.0 10.0 0.00 0.42 0.00 73 1038.4
20220807084005 64 209 6.0 10.0 0.00 0.42 0.00 73 1038.5
20220807083507 64 212 6.0 10.0 0.00 0.42 0.00 73 1038.5
20220807083005 64 218 6.0 10.0 0.00 0.42 0.00 72 1038.5
20220807082508 64 190 5.0 8.0 0.00 0.42 0.00 73 1038.4
20220807082006 64 220 5.0 8.0 0.00 0.42 0.00 73 1038.5
20220807081511 64 192 4.0 7.0 0.00 0.42 0.00 73 1023.2
20220807081505 64 192 5.0 7.0 0.00 0.42 0.00 73 1038.6
20220807081006 65 224 3.0 6.0 0.00 0.42 0.00 71 1038.6
20220807080506 65 199 4.0 6.0 0.00 0.42 0.00 68 1038.6
20220807080007 65 223 3.0 7.0 0.00 0.42 0.00 69 1038.7
20220807075506 65 194 5.0 7.0 0.00 0.42 0.00 69 1038.7
20220807075005 66 215 3.0 7.0 0.00 0.42 0.00 68 1038.8
20220807074510 67 213 3.0 7.0 0.00 0.42 0.00 65 1023.4
20220807074508 67 213 4.0 7.0 0.00 0.42 0.00 65 1038.8
20220807074006 67 187 3.0 6.0 0.00 0.42 0.00 65 1038.8
20220807073506 67 213 3.0 7.0 0.00 0.42 0.00 64 1038.8
20220807073007 67 201 4.0 7.0 0.00 0.42 0.00 64 1038.8
20220807073005 67 201 4.0 7.0 0.00 0.42 0.00 64 1023.3
20220807072510 67 169 3.0 7.0 0.00 0.42 0.00 66 1038.8
20220807072006 67 209 3.0 5.0 0.00 0.42 0.00 67 1039.0
20220807071507 67 191 3.0 8.0 0.00 0.42 0.00 67 1039.0
20220807071006 67 213 4.0 8.0 0.00 0.42 0.00 68 1039.1
20220807070510 68 220 4.0 8.0 0.00 0.42 0.00 67 1039.1
20220807070008 68 220 4.0 8.0 0.00 0.42 0.00 67 1039.1
20220807070006 68 220 4.0 8.0 0.00 0.42 0.00 67 1023.6
20220807065507 68 206 4.0 7.0 0.00 0.42 0.00 67 1039.2
20220807065005 67 207 3.0 7.0 0.00 0.42 0.00 68 1039.3
20220807064506 68 172 4.0 7.0 0.00 0.42 0.00 68 1039.3
20220807064504 68 172 4.0 7.0 0.00 0.42 0.00 68 1023.8
20220807064007 67 198 4.0 9.0 0.00 0.42 0.00 68 1039.5
20220807063507 67 182 6.0 9.0 0.00 0.42 0.00 69 1039.5